Time;durP1;ratioP1;P1;durP2;ratioP2;P2;SDS_P1;SDS_P2;PMS_P1;PMS_P2;Temp;Humidity;BMP_temperature;BMP_pressure;BME280_temperature;BME280_humidity;BME280_pressure;Samples;Min_cycle;Max_cycle;Signal;HPM_P1;HPM_P2
2023/02/16 00:00:22;;;;;;;18.97;12.23;;;3.30;99.90;;;;;;5132990;27;20397;-68
2023/02/16 00:02:48;;;;;;;18.77;12.00;;;3.10;99.90;;;;;;5132916;27;20757;-68
2023/02/16 00:05:29;;;;;;;19.20;10.50;;;3.10;99.90;;;;;;5121309;28;20403;-68
2023/02/16 00:07:56;;;;;;;19.77;10.47;;;3.00;99.90;;;;;;5111969;28;20185;-68
2023/02/16 00:10:22;;;;;;;20.17;11.93;;;3.00;99.90;;;;;;5112221;28;20406;-68
2023/02/16 00:15:33;;;;;;;19.17;10.20;;;2.90;99.90;;;;;;5112313;28;20918;-68
2023/02/16 00:18:01;;;;;;;18.80;11.47;;;2.90;99.90;;;;;;5121390;28;20422;-68
2023/02/16 00:20:29;;;;;;;20.37;11.07;;;2.80;99.90;;;;;;5121563;27;20409;-68
2023/02/16 00:22:54;;;;;;;20.13;12.00;;;2.80;99.90;;;;;;5142692;27;20906;-68
2023/02/16 00:25:20;;;;;;;18.70;11.37;;;2.70;99.90;;;;;;5131420;27;20416;-68
2023/02/16 00:27:45;;;;;;;16.27;10.70;;;2.60;99.90;;;;;;5132284;27;20185;-68
2023/02/16 00:30:16;;;;;;;18.63;11.60;;;2.60;99.90;;;;;;5132665;28;20164;-68
2023/02/16 00:32:42;;;;;;;14.73;10.80;;;2.70;99.90;;;;;;5132428;27;20163;-68
2023/02/16 00:35:13;;;;;;;17.47;11.00;;;2.70;99.90;;;;;;5132535;28;20409;-69
2023/02/16 00:37:39;;;;;;;18.30;11.40;;;2.70;99.90;;;;;;5132264;27;20183;-67
2023/02/16 00:40:05;;;;;;;19.87;12.00;;;2.70;99.90;;;;;;5132534;28;20922;-67
2023/02/16 00:42:32;;;;;;;13.70;9.50;;;2.70;99.90;;;;;;5132487;27;20203;-68
2023/02/16 00:44:58;;;;;;;22.00;11.47;;;2.70;99.90;;;;;;5132551;27;20397;-67
2023/02/16 00:47:40;;;;;;;16.87;11.90;;;2.60;99.90;;;;;;5121522;28;20473;-67
2023/02/16 00:50:15;;;;;;;25.40;12.10;;;2.50;99.90;;;;;;5113331;28;20157;-67
2023/02/16 00:52:41;;;;;;;19.40;10.70;;;2.50;99.90;;;;;;5115721;28;20500;-68
2023/02/16 00:55:10;;;;;;;21.27;12.50;;;2.40;99.90;;;;;;5115800;28;20780;-67
2023/02/16 00:57:47;;;;;;;21.30;11.20;;;2.40;99.90;;;;;;5115485;28;20419;-67
2023/02/16 01:00:30;;;;;;;21.93;11.23;;;2.40;99.90;;;;;;5115635;28;20410;-68
2023/02/16 01:02:59;;;;;;;19.13;12.87;;;2.40;99.90;;;;;;5115696;28;20399;-67
2023/02/16 01:05:24;;;;;;;21.23;11.00;;;2.40;99.90;;;;;;5115511;27;20904;-67
2023/02/16 01:13:21;;;;;;;21.10;12.00;;;2.30;99.90;;;;;;5115383;28;20461;-68
2023/02/16 01:15:46;;;;;;;24.03;11.90;;;2.30;99.90;;;;;;5117315;27;20436;-67
2023/02/16 01:18:16;;;;;;;22.57;11.37;;;2.30;99.90;;;;;;5116066;27;20430;-68
2023/02/16 01:20:41;;;;;;;19.30;11.37;;;2.30;99.90;;;;;;5115164;28;20171;-68
2023/02/16 01:23:07;;;;;;;25.47;13.40;;;2.20;99.90;;;;;;5115258;28;20402;-68
2023/02/16 01:25:34;;;;;;;26.10;14.67;;;2.20;99.90;;;;;;5115149;28;20639;-68
2023/02/16 01:27:59;;;;;;;22.50;15.20;;;2.20;99.90;;;;;;5114759;28;20181;-68
2023/02/16 01:30:25;;;;;;;21.40;12.03;;;2.20;99.90;;;;;;5114986;28;20421;-68
2023/02/16 01:32:51;;;;;;;25.13;12.10;;;2.30;99.90;;;;;;5139787;27;20522;-67
2023/02/16 01:35:37;;;;;;;20.03;11.53;;;2.30;99.90;;;;;;5137951;27;20409;-68
2023/02/16 01:38:03;;;;;;;23.40;13.10;;;2.20;99.90;;;;;;5135194;27;20176;-68
2023/02/16 01:40:34;;;;;;;19.43;11.13;;;2.10;99.90;;;;;;5135341;27;20398;-68
2023/02/16 01:43:18;;;;;;;19.70;10.93;;;2.10;99.90;;;;;;5135428;27;20247;-68
2023/02/16 01:46:09;;;;;;;20.07;11.70;;;2.10;99.90;;;;;;5127607;27;20411;-69
2023/02/16 01:48:35;;;;;;;16.30;10.40;;;2.10;99.90;;;;;;5103296;28;20473;-68
2023/02/16 01:51:13;;;;;;;23.80;12.77;;;2.00;99.90;;;;;;5114668;28;20812;-68
2023/02/16 01:53:44;;;;;;;26.10;11.50;;;2.00;99.90;;;;;;5114544;28;20189;-69
2023/02/16 01:56:23;;;;;;;19.30;11.50;;;2.00;99.90;;;;;;5114628;28;20391;-68
2023/02/16 01:58:54;;;;;;;19.87;11.77;;;2.10;99.90;;;;;;5114266;28;20788;-68
2023/02/16 02:01:51;;;;;;;18.03;12.60;;;2.00;99.90;;;;;;5114389;28;20422;-67
2023/02/16 02:07:38;;;;;;;16.83;11.47;;;1.90;99.90;;;;;;5134564;27;20473;-68
2023/02/16 02:10:41;;;;;;;30.00;13.90;;;1.90;99.90;;;;;;5134852;27;20791;-69
2023/02/16 02:13:12;;;;;;;23.30;11.43;;;2.00;99.90;;;;;;5092208;27;20543;-68
2023/02/16 02:15:38;;;;;;;26.87;10.83;;;2.00;99.90;;;;;;5130660;27;20497;-68
2023/02/16 02:18:03;;;;;;;22.43;11.47;;;2.00;99.90;;;;;;5113711;28;20446;-68
2023/02/16 02:23:46;;;;;;;18.37;10.93;;;2.00;99.90;;;;;;5114039;28;20192;-68
2023/02/16 02:26:33;;;;;;;20.07;11.20;;;1.90;99.90;;;;;;5113993;28;20425;-68
2023/02/16 02:29:20;;;;;;;25.43;13.27;;;1.90;99.90;;;;;;5113555;28;20471;-68
2023/02/16 02:32:14;;;;;;;22.23;13.17;;;1.80;99.90;;;;;;5113756;28;20401;-68
2023/02/16 02:34:55;;;;;;;21.50;12.30;;;1.70;99.90;;;;;;5102475;28;20462;-68
2023/02/16 02:37:48;;;;;;;22.93;12.40;;;1.80;99.90;;;;;;5113409;28;20454;-68
2023/02/16 02:40:26;;;;;;;20.30;12.10;;;1.80;99.90;;;;;;5112936;28;20418;-68
2023/02/16 02:43:07;;;;;;;18.43;10.90;;;1.80;99.90;;;;;;5116897;27;20390;-69
2023/02/16 02:45:39;;;;;;;19.20;11.97;;;1.80;99.90;;;;;;5137438;27;20400;-68
2023/02/16 02:48:05;;;;;;;15.30;10.83;;;1.70;99.90;;;;;;5154477;27;20809;-67
2023/02/16 02:51:28;;;;;;;30.57;13.23;;;1.70;99.90;;;;;;5154607;27;20400;-68
2023/02/16 02:53:30;;;;;;;16.37;10.77;;;1.80;99.90;;;;;;5140018;27;20453;-68
2023/02/16 03:01:40;;;;;;;20.43;12.30;;;1.80;99.90;;;;;;5137828;27;20399;-69
2023/02/16 03:04:08;;;;;;;23.93;11.80;;;1.70;99.90;;;;;;5152477;27;20400;-68
2023/02/16 03:06:39;;;;;;;25.63;13.47;;;1.70;99.90;;;;;;5133621;27;20400;-68
2023/02/16 03:09:10;;;;;;;23.90;11.63;;;1.80;99.90;;;;;;5132087;27;21021;-68
2023/02/16 03:14:38;;;;;;;23.17;13.17;;;1.70;99.90;;;;;;5121460;27;20836;-68
2023/02/16 03:31:03;;;;;;;22.47;11.40;;;1.60;99.90;;;;;;5112734;28;20451;-67
2023/02/16 03:33:29;;;;;;;18.03;12.17;;;1.60;99.90;;;;;;5111391;28;20457;-69
2023/02/16 03:35:55;;;;;;;20.67;10.73;;;1.60;99.90;;;;;;5112588;28;20413;-68
2023/02/16 03:38:21;;;;;;;20.60;11.30;;;1.60;99.90;;;;;;5112195;28;20931;-68
2023/02/16 03:40:49;;;;;;;24.70;11.77;;;1.60;99.90;;;;;;5112562;28;20407;-68
2023/02/16 03:43:15;;;;;;;25.00;11.70;;;1.60;99.90;;;;;;5111171;28;20184;-68
2023/02/16 03:45:43;;;;;;;19.40;12.37;;;1.60;99.90;;;;;;5112543;28;20940;-68
2023/02/16 03:48:09;;;;;;;29.37;12.47;;;1.60;99.90;;;;;;5112232;28;20184;-67
2023/02/16 03:50:35;;;;;;;35.70;13.47;;;1.50;99.90;;;;;;5124253;27;20420;-68
2023/02/16 03:53:07;;;;;;;24.30;12.27;;;1.60;99.90;;;;;;5141792;27;20987;-68
2023/02/16 03:55:44;;;;;;;17.37;12.17;;;1.50;99.90;;;;;;5133040;27;20623;-68
2023/02/16 03:58:13;;;;;;;21.37;13.20;;;1.60;99.90;;;;;;5132640;27;20420;-68
2023/02/16 04:00:39;;;;;;;24.80;13.30;;;1.60;99.90;;;;;;5132903;27;20397;-67
2023/02/16 04:03:07;;;;;;;23.27;12.37;;;1.50;99.90;;;;;;5133008;28;21000;-68
2023/02/16 04:05:33;;;;;;;25.77;13.30;;;1.60;99.90;;;;;;5118451;27;20416;-68
2023/02/16 04:07:59;;;;;;;20.10;13.43;;;1.50;99.90;;;;;;5110678;28;20931;-68
2023/02/16 04:10:24;;;;;;;21.07;12.70;;;1.50;99.90;;;;;;5112282;28;20172;-68
2023/02/16 04:12:50;;;;;;;24.77;14.30;;;1.60;99.90;;;;;;5119258;28;20175;-68
2023/02/16 04:15:18;;;;;;;25.80;13.67;;;1.60;99.90;;;;;;5112227;28;20181;-68
2023/02/16 04:17:44;;;;;;;22.57;13.10;;;1.60;99.90;;;;;;5111839;28;20553;-68
2023/02/16 04:20:13;;;;;;;28.80;15.67;;;1.60;99.90;;;;;;5112085;28;20432;-68
2023/02/16 04:22:39;;;;;;;23.53;13.80;;;1.60;99.90;;;;;;5110857;28;20455;-67
2023/02/16 04:25:06;;;;;;;25.23;14.60;;;1.60;99.90;;;;;;5113590;28;20406;-68
2023/02/16 04:27:31;;;;;;;22.23;12.77;;;1.70;99.90;;;;;;5115901;28;20866;-68
2023/02/16 04:29:57;;;;;;;24.13;14.47;;;1.80;99.90;;;;;;5116268;28;20407;-68
2023/02/16 04:32:22;;;;;;;18.03;12.97;;;1.80;99.90;;;;;;5116131;28;20626;-68
2023/02/16 04:34:48;;;;;;;38.93;15.30;;;1.80;99.90;;;;;;5115922;28;20654;-67
2023/02/16 04:37:13;;;;;;;29.80;16.07;;;1.80;99.90;;;;;;5115685;28;20172;-68
2023/02/16 04:39:39;;;;;;;29.67;14.30;;;1.90;99.90;;;;;;5116019;28;20175;-68
2023/02/16 04:42:05;;;;;;;26.53;15.00;;;1.90;99.90;;;;;;5117032;27;20187;-68
2023/02/16 04:44:30;;;;;;;22.23;14.43;;;1.90;99.90;;;;;;5115962;28;20167;-67
2023/02/16 04:46:56;;;;;;;19.80;11.83;;;1.80;99.90;;;;;;5115515;28;20329;-68
2023/02/16 04:49:21;;;;;;;33.67;16.80;;;1.70;99.90;;;;;;5115568;28;20261;-68
2023/02/16 04:51:47;;;;;;;24.13;13.73;;;1.70;99.90;;;;;;5115585;28;20244;-68
2023/02/16 04:54:13;;;;;;;25.87;14.97;;;1.80;99.90;;;;;;5115373;28;20236;-68
2023/02/16 04:56:38;;;;;;;25.93;15.07;;;1.70;99.90;;;;;;5115296;28;20541;-67
2023/02/16 04:59:04;;;;;;;28.00;13.50;;;1.70;99.90;;;;;;5115015;28;20257;-68
2023/02/16 05:01:29;;;;;;;29.00;14.03;;;1.70;99.90;;;;;;5119737;27;20641;-67
2023/02/16 05:03:55;;;;;;;22.93;12.90;;;1.60;99.90;;;;;;5146904;27;20175;-67
2023/02/16 05:06:21;;;;;;;31.07;14.20;;;1.70;99.90;;;;;;5115300;28;20187;-67
2023/02/16 05:08:47;;;;;;;23.77;12.80;;;1.60;99.90;;;;;;5114939;28;20184;-68
2023/02/16 05:16:44;;;;;;;27.67;12.80;;;1.60;99.90;;;;;;5117140;27;20462;-68
2023/02/16 05:19:10;;;;;;;26.80;12.50;;;1.60;99.90;;;;;;5114829;28;20421;-68
2023/02/16 05:21:36;;;;;;;23.43;14.53;;;1.60;99.90;;;;;;5120906;27;20443;-67
2023/02/16 05:24:04;;;;;;;23.77;14.23;;;1.60;99.90;;;;;;5135426;27;20908;-67
2023/02/16 05:26:31;;;;;;;36.47;13.23;;;1.60;99.90;;;;;;5135452;27;20510;-68
2023/02/16 05:28:57;;;;;;;23.00;14.00;;;1.60;99.90;;;;;;5135045;27;20454;-67
2023/02/16 05:31:23;;;;;;;29.10;12.30;;;1.50;99.90;;;;;;5135403;27;20412;-67
2023/02/16 05:33:49;;;;;;;23.40;12.10;;;1.50;99.90;;;;;;5135418;27;20494;-67
2023/02/16 05:36:15;;;;;;;26.67;15.90;;;1.50;99.90;;;;;;5134963;27;20438;-67
2023/02/16 05:38:40;;;;;;;22.00;11.30;;;1.60;99.90;;;;;;5134967;27;20194;-68
2023/02/16 05:41:06;;;;;;;31.10;14.53;;;1.60;99.90;;;;;;5134009;27;20179;-68
2023/02/16 05:43:32;;;;;;;28.50;14.83;;;1.60;99.90;;;;;;5133906;27;20176;-68
2023/02/16 05:45:57;;;;;;;28.40;14.47;;;1.60;99.90;;;;;;5123338;27;20184;-67
2023/02/16 05:48:23;;;;;;;25.67;13.77;;;1.60;99.90;;;;;;5114314;28;20200;-67
2023/02/16 05:50:48;;;;;;;27.13;14.50;;;1.70;99.90;;;;;;5114567;28;20180;-68
2023/02/16 05:53:14;;;;;;;23.97;13.83;;;1.70;99.90;;;;;;5114478;28;20569;-68
2023/02/16 05:55:39;;;;;;;32.63;15.33;;;1.70;99.90;;;;;;5114528;28;20657;-68
2023/02/16 05:58:05;;;;;;;33.97;13.93;;;1.70;99.90;;;;;;5114090;28;20551;-68
2023/02/16 06:00:32;;;;;;;25.67;15.87;;;1.60;99.90;;;;;;5116393;27;20172;-68
2023/02/16 06:02:58;;;;;;;23.53;13.73;;;1.50;99.90;;;;;;5130455;27;20175;-68
2023/02/16 06:05:24;;;;;;;24.90;13.80;;;1.50;99.90;;;;;;5121885;27;20417;-69
2023/02/16 06:07:50;;;;;;;24.30;14.93;;;1.50;99.90;;;;;;5113991;28;20430;-67
2023/02/16 06:10:16;;;;;;;24.57;12.40;;;1.50;99.90;;;;;;5114216;28;20444;-67
2023/02/16 06:12:42;;;;;;;30.13;14.20;;;1.50;99.90;;;;;;5114780;27;20173;-67
2023/02/16 06:15:07;;;;;;;28.37;15.30;;;1.50;99.90;;;;;;5145067;27;20504;-67
2023/02/16 06:17:33;;;;;;;26.67;15.07;;;1.50;99.90;;;;;;5148635;27;20192;-68
2023/02/16 06:19:58;;;;;;;24.53;14.70;;;1.50;99.90;;;;;;5134597;27;20165;-67
2023/02/16 06:22:24;;;;;;;26.67;15.23;;;1.60;99.90;;;;;;5134604;27;20820;-67
2023/02/16 06:24:49;;;;;;;26.87;14.17;;;1.70;99.90;;;;;;5134476;27;20175;-68
2023/02/16 06:27:15;;;;;;;24.47;13.37;;;1.70;99.90;;;;;;5134028;27;20179;-68
2023/02/16 06:29:40;;;;;;;24.77;15.23;;;1.70;99.90;;;;;;5134725;27;20176;-67
2023/02/16 06:32:06;;;;;;;25.47;14.90;;;1.80;99.90;;;;;;5134412;27;20522;-67
2023/02/16 06:34:31;;;;;;;28.43;14.40;;;1.80;99.90;;;;;;5134392;27;20192;-68
2023/02/16 06:36:57;;;;;;;24.17;14.40;;;1.80;99.90;;;;;;5134032;27;20186;-68
2023/02/16 06:39:22;;;;;;;26.43;14.87;;;1.80;99.90;;;;;;5134223;27;20878;-68
2023/02/16 06:41:48;;;;;;;36.73;15.80;;;1.80;99.90;;;;;;5134203;27;20160;-68
2023/02/16 06:44:15;;;;;;;31.40;16.87;;;1.90;99.90;;;;;;5132940;27;20210;-68
2023/02/16 06:46:42;;;;;;;36.23;16.90;;;1.90;99.90;;;;;;5118430;27;20172;-68
2023/02/16 06:49:11;;;;;;;27.70;14.93;;;2.00;99.90;;;;;;5133197;27;20421;-68
2023/02/16 06:51:37;;;;;;;29.03;14.30;;;2.00;99.90;;;;;;5133780;27;20412;-68
2023/02/16 06:54:02;;;;;;;24.17;14.40;;;2.10;99.90;;;;;;5133787;27;20446;-68
2023/02/16 06:56:28;;;;;;;29.80;13.90;;;2.10;99.90;;;;;;5133927;27;20225;-68
2023/02/16 06:58:54;;;;;;;25.73;13.20;;;2.20;99.90;;;;;;5133636;27;20206;-68
2023/02/16 07:01:21;;;;;;;28.23;14.80;;;2.30;99.90;;;;;;5133848;27;20168;-68
2023/02/16 07:03:49;;;;;;;25.33;15.07;;;2.40;99.90;;;;;;5134010;27;20160;-67
2023/02/16 07:06:15;;;;;;;25.87;13.40;;;2.50;99.90;;;;;;5113538;27;20409;-67
2023/02/16 07:08:40;;;;;;;34.53;15.23;;;2.50;99.90;;;;;;5112749;28;20994;-67
2023/02/16 07:11:06;;;;;;;23.23;13.50;;;2.60;99.90;;;;;;5113074;28;20325;-67
2023/02/16 07:13:35;;;;;;;26.80;15.60;;;2.60;99.90;;;;;;5120986;27;20208;-68
2023/02/16 07:16:01;;;;;;;32.87;16.47;;;2.80;99.90;;;;;;5133608;27;20160;-67
2023/02/16 07:18:27;;;;;;;33.63;18.37;;;3.00;99.90;;;;;;5133146;27;20436;-67
2023/02/16 07:20:53;;;;;;;22.00;14.13;;;2.90;99.90;;;;;;5133527;27;20950;-67
2023/02/16 07:23:18;;;;;;;28.83;14.90;;;2.80;99.90;;;;;;5133432;27;20265;-68
2023/02/16 07:25:44;;;;;;;28.93;14.77;;;2.90;99.90;;;;;;5138494;27;20180;-68
2023/02/16 07:28:09;;;;;;;22.83;14.90;;;2.90;99.90;;;;;;5150318;27;20195;-67
2023/02/16 07:30:35;;;;;;;29.23;16.00;;;2.90;99.90;;;;;;5154115;27;20163;-67
2023/02/16 07:33:00;;;;;;;30.40;15.40;;;2.90;99.90;;;;;;5153983;27;20645;-68
2023/02/16 07:35:26;;;;;;;26.77;15.57;;;2.90;99.90;;;;;;5154035;27;20739;-68
2023/02/16 07:37:51;;;;;;;26.77;15.93;;;2.90;99.90;;;;;;5153583;27;20175;-68
2023/02/16 07:40:17;;;;;;;25.17;14.07;;;2.80;99.90;;;;;;5153847;27;20660;-67
2023/02/16 07:42:43;;;;;;;31.53;15.13;;;2.80;99.90;;;;;;5141957;27;20168;-68
2023/02/16 07:45:08;;;;;;;28.17;15.47;;;2.80;99.90;;;;;;5130813;27;20172;-68
2023/02/16 07:47:34;;;;;;;31.80;15.70;;;2.90;99.90;;;;;;5132742;27;20188;-68
2023/02/16 07:50:00;;;;;;;23.67;14.77;;;2.90;99.90;;;;;;5132463;27;20160;-68
2023/02/16 07:52:29;;;;;;;27.43;16.30;;;2.90;99.90;;;;;;5132999;27;20164;-68
2023/02/16 07:54:58;;;;;;;35.20;15.60;;;3.00;99.90;;;;;;5132925;27;20198;-68
2023/02/16 07:57:24;;;;;;;27.20;14.83;;;3.10;99.90;;;;;;5132046;27;20500;-68
2023/02/16 07:59:51;;;;;;;28.43;13.83;;;3.20;99.90;;;;;;5127626;27;20407;-68
2023/02/16 08:02:18;;;;;;;27.87;15.77;;;3.30;99.90;;;;;;5128396;27;20462;-68
2023/02/16 08:04:44;;;;;;;27.43;14.47;;;3.40;99.90;;;;;;5125541;27;20403;-68
2023/02/16 08:07:15;;;;;;;30.00;16.47;;;3.50;99.90;;;;;;5111904;28;20421;-68
2023/02/16 08:09:40;;;;;;;26.60;14.87;;;3.60;99.90;;;;;;5112304;28;20398;-67
2023/02/16 08:12:11;;;;;;;30.70;16.63;;;3.60;99.90;;;;;;5112233;28;20413;-68
2023/02/16 08:14:37;;;;;;;36.27;17.10;;;3.80;99.90;;;;;;5112115;28;20228;-68
2023/02/16 08:17:04;;;;;;;26.80;16.37;;;4.00;99.90;;;;;;5111897;28;20429;-68
2023/02/16 08:19:29;;;;;;;27.60;17.80;;;4.20;99.90;;;;;;5112194;28;20177;-68
2023/02/16 08:21:56;;;;;;;30.00;16.27;;;4.20;99.90;;;;;;5112126;28;20760;-68
2023/02/16 08:24:23;;;;;;;38.77;17.53;;;4.30;99.90;;;;;;5112156;28;20688;-67
2023/02/16 08:26:51;;;;;;;32.83;17.90;;;4.30;99.90;;;;;;5111960;28;20403;-68
2023/02/16 08:29:18;;;;;;;31.93;15.70;;;4.30;99.90;;;;;;5113537;28;20936;-68
2023/02/16 08:31:45;;;;;;;24.53;14.20;;;4.30;99.90;;;;;;5127629;28;20414;-68
2023/02/16 08:34:12;;;;;;;31.83;17.30;;;4.50;99.90;;;;;;5141387;27;20444;-68
2023/02/16 08:36:39;;;;;;;32.77;17.60;;;4.70;99.90;;;;;;5134686;27;20421;-68
2023/02/16 08:39:07;;;;;;;29.13;16.60;;;5.10;99.90;;;;;;5132208;27;21016;-68
2023/02/16 08:41:35;;;;;;;22.57;14.30;;;5.40;99.90;;;;;;5132549;27;20440;-68
2023/02/16 08:44:02;;;;;;;26.33;15.60;;;5.60;99.90;;;;;;5132595;27;20411;-68
2023/02/16 08:46:29;;;;;;;29.73;14.50;;;5.80;99.90;;;;;;5132540;27;20832;-68
2023/02/16 08:48:58;;;;;;;25.93;15.80;;;5.80;99.90;;;;;;5132273;27;21255;-68
2023/02/16 08:51:24;;;;;;;31.97;16.33;;;6.10;99.90;;;;;;5132392;27;20409;-68
2023/02/16 08:53:51;;;;;;;25.33;15.67;;;6.60;99.90;;;;;;5132397;27;20933;-68
2023/02/16 08:56:18;;;;;;;22.60;15.03;;;7.00;99.90;;;;;;5132372;27;20398;-68
2023/02/16 08:58:45;;;;;;;42.33;16.80;;;8.20;99.90;;;;;;5129183;27;20495;-67
2023/02/16 09:01:11;;;;;;;23.70;14.00;;;9.60;99.90;;;;;;5112105;28;20499;-67
2023/02/16 09:03:41;;;;;;;22.03;15.30;;;11.50;99.90;;;;;;5112139;28;20813;-67
2023/02/16 09:06:08;;;;;;;19.03;12.77;;;12.70;99.90;;;;;;5111758;28;20471;-68
2023/02/16 09:08:36;;;;;;;24.93;13.60;;;13.70;99.90;;;;;;5114285;28;20421;-67
2023/02/16 09:11:04;;;;;;;20.43;13.27;;;13.80;99.90;;;;;;5112995;28;20402;-67
2023/02/16 09:13:29;;;;;;;20.53;15.47;;;14.30;99.90;;;;;;5115352;28;20472;-67
2023/02/16 09:16:01;;;;;;;24.67;14.70;;;15.00;99.90;;;;;;5115370;28;20756;-67
2023/02/16 09:18:26;;;;;;;22.93;16.67;;;15.70;95.50;;;;;;5114867;28;20611;-67
2023/02/16 09:20:52;;;;;;;21.20;15.60;;;16.20;90.30;;;;;;5115169;28;20402;-68
2023/02/16 09:23:19;;;;;;;21.93;14.83;;;16.10;80.30;;;;;;5115132;28;20218;-68
2023/02/16 09:25:44;;;;;;;25.30;15.87;;;15.60;78.40;;;;;;5115014;28;20164;-67
2023/02/16 09:28:10;;;;;;;20.90;14.90;;;15.10;88.80;;;;;;5114751;28;21001;-67
2023/02/16 09:30:39;;;;;;;20.13;15.20;;;16.20;93.20;;;;;;5122323;27;20173;-68
2023/02/16 09:33:04;;;;;;;19.80;14.07;;;18.20;83.60;;;;;;5114993;28;20161;-68
2023/02/16 09:35:30;;;;;;;22.13;15.60;;;19.30;68.40;;;;;;5114982;28;20516;-67
2023/02/16 09:37:56;;;;;;;19.30;14.13;;;20.10;61.80;;;;;;5114689;27;20268;-67
2023/02/16 09:40:23;;;;;;;18.90;14.40;;;19.80;58.20;;;;;;5140721;27;20451;-68
2023/02/16 09:43:01;;;;;;;22.03;16.70;;;18.00;56.40;;;;;;5137260;27;20481;-68
2023/02/16 09:45:28;;;;;;;23.60;15.80;;;16.80;57.60;;;;;;5135303;27;20436;-67
2023/02/16 09:47:58;;;;;;;22.33;16.63;;;15.80;60.80;;;;;;5134951;27;20433;-68
2023/02/16 09:50:26;;;;;;;20.93;15.10;;;14.70;71.70;;;;;;5135213;27;20439;-68
2023/02/16 09:53:14;;;;;;;19.83;14.50;;;14.20;87.30;;;;;;5135184;27;20431;-67
2023/02/16 09:55:58;;;;;;;23.57;15.90;;;13.50;96.20;;;;;;5135141;27;20428;-67
2023/02/16 09:58:32;;;;;;;22.00;15.00;;;13.00;99.90;;;;;;5130757;27;20475;-67
2023/02/16 10:01:08;;;;;;;24.30;15.63;;;12.30;99.90;;;;;;5134116;27;20501;-67
2023/02/16 10:03:49;;;;;;;23.80;14.90;;;11.90;99.90;;;;;;5135000;27;20409;-67
2023/02/16 10:06:39;;;;;;;24.20;15.23;;;11.30;99.90;;;;;;5114612;27;20421;-67
2023/02/16 10:09:17;;;;;;;24.80;14.80;;;11.00;99.90;;;;;;5114245;28;20418;-67
2023/02/16 10:11:50;;;;;;;21.60;15.60;;;10.60;99.90;;;;;;5114403;28;20402;-67
2023/02/16 10:14:35;;;;;;;25.80;15.30;;;10.40;99.90;;;;;;5113838;28;20831;-67
2023/02/16 10:17:22;;;;;;;24.57;15.87;;;10.30;99.90;;;;;;5113907;28;20394;-67
2023/02/16 10:19:53;;;;;;;21.93;14.10;;;10.10;99.90;;;;;;5114270;28;20916;-66
2023/02/16 10:22:53;;;;;;;26.10;16.37;;;10.00;99.90;;;;;;5114116;28;20489;-67
2023/02/16 10:25:31;;;;;;;25.43;15.23;;;10.00;99.90;;;;;;5040893;27;20882;-67
2023/02/16 10:28:24;;;;;;;25.40;14.40;;;9.60;99.90;;;;;;5113674;28;20414;-67
2023/02/16 10:31:01;;;;;;;16.63;14.27;;;9.60;99.90;;;;;;5122931;27;20919;-67
2023/02/16 10:33:43;;;;;;;23.33;14.17;;;9.50;99.90;;;;;;5134527;27;20456;-68
2023/02/16 10:36:35;;;;;;;30.07;16.20;;;9.30;99.90;;;;;;5134435;27;20393;-67
2023/02/16 10:39:26;;;;;;;19.17;13.10;;;9.20;99.90;;;;;;5133984;27;20421;-67
2023/02/16 10:42:16;;;;;;;19.97;13.53;;;9.30;99.90;;;;;;5134628;27;20473;-72
2023/02/16 10:45:04;;;;;;;28.13;16.33;;;9.30;99.90;;;;;;5134192;27;20771;-71
2023/02/16 10:47:38;;;;;;;28.67;15.90;;;9.40;99.90;;;;;;5133734;27;20397;-71
2023/02/16 10:50:14;;;;;;;20.03;13.77;;;9.60;99.90;;;;;;5135618;27;21014;-71
2023/02/16 10:52:42;;;;;;;26.80;16.73;;;9.90;99.90;;;;;;5145686;27;20477;-72
2023/02/16 10:55:08;;;;;;;22.13;16.13;;;10.10;99.90;;;;;;5134021;27;20449;-72
2023/02/16 10:57:33;;;;;;;27.47;15.60;;;10.20;99.90;;;;;;5133577;27;20949;-71
2023/02/16 11:00:09;;;;;;;27.10;15.33;;;10.20;99.90;;;;;;5113492;27;20408;-72
2023/02/16 11:02:38;;;;;;;26.23;17.07;;;10.10;99.90;;;;;;5113331;28;20199;-71
2023/02/16 11:05:35;;;;;;;21.90;14.33;;;10.00;99.90;;;;;;5123345;27;20766;-71
2023/02/16 11:08:01;;;;;;;25.73;14.60;;;9.90;99.90;;;;;;5124134;27;20850;-75
2023/02/16 11:10:36;;;;;;;27.80;17.23;;;9.80;99.90;;;;;;5110743;28;20439;-71
2023/02/16 11:13:02;;;;;;;29.13;18.07;;;10.00;99.90;;;;;;5113080;28;20172;-70
2023/02/16 11:15:28;;;;;;;23.10;14.70;;;10.00;99.90;;;;;;5111834;28;20411;-70
2023/02/16 11:18:03;;;;;;;23.97;16.27;;;9.90;99.90;;;;;;5111319;28;20449;-71
2023/02/16 11:20:29;;;;;;;26.00;14.60;;;10.10;99.90;;;;;;5112993;28;20401;-70
2023/02/16 11:23:21;;;;;;;24.90;15.10;;;10.20;99.90;;;;;;5115573;27;20410;-69
2023/02/16 11:26:04;;;;;;;25.10;15.57;;;10.30;99.90;;;;;;5133557;27;20375;-69
2023/02/16 11:28:39;;;;;;;27.63;16.20;;;10.50;99.90;;;;;;5126632;27;20415;-69
2023/02/16 11:31:17;;;;;;;24.47;15.13;;;10.70;99.90;;;;;;5111686;28;20795;-69
2023/02/16 11:33:55;;;;;;;22.43;14.77;;;11.00;99.90;;;;;;5112490;28;20449;-69
2023/02/16 11:36:31;;;;;;;25.70;15.83;;;11.20;99.90;;;;;;5113019;28;20406;-69
2023/02/16 11:39:16;;;;;;;24.17;16.03;;;11.20;99.90;;;;;;5112454;28;20410;-70
2023/02/16 11:41:52;;;;;;;28.73;16.17;;;11.10;99.90;;;;;;5130178;27;20828;-70
2023/02/16 11:44:45;;;;;;;23.30;16.57;;;11.20;99.90;;;;;;5133190;27;20725;-70
2023/02/16 11:47:30;;;;;;;25.57;16.63;;;11.20;99.90;;;;;;5132940;27;20397;-69
2023/02/16 11:50:28;;;;;;;24.20;16.80;;;11.30;99.90;;;;;;5133130;27;20400;-69
2023/02/16 11:53:21;;;;;;;25.00;15.40;;;11.40;99.90;;;;;;5132970;27;20805;-70
2023/02/16 11:55:48;;;;;;;24.50;16.90;;;11.40;99.90;;;;;;5116936;27;20411;-70
2023/02/16 11:58:26;;;;;;;32.40;16.77;;;11.30;99.90;;;;;;5112034;28;20426;-70
2023/02/16 12:00:57;;;;;;;24.93;16.30;;;11.30;99.90;;;;;;5112390;28;20387;-69
2023/02/16 12:03:41;;;;;;;21.33;14.97;;;11.20;99.90;;;;;;5142897;27;20427;-70
2023/02/16 12:06:40;;;;;;;25.33;16.27;;;11.10;99.90;;;;;;5113718;28;20417;-70
2023/02/16 12:09:35;;;;;;;25.43;14.00;;;11.00;99.90;;;;;;5111974;28;20429;-70
2023/02/16 12:12:35;;;;;;;25.80;15.90;;;10.90;99.90;;;;;;5094685;28;20812;-70
2023/02/16 12:15:13;;;;;;;24.17;15.17;;;11.00;99.90;;;;;;5112048;28;20457;-70
2023/02/16 12:17:39;;;;;;;23.07;15.60;;;10.90;99.90;;;;;;5115109;28;20839;-70
2023/02/16 12:20:16;;;;;;;28.37;15.87;;;10.90;99.90;;;;;;5132596;27;20811;-70
2023/02/16 12:22:46;;;;;;;25.37;16.70;;;10.90;99.90;;;;;;5132795;27;20484;-70
2023/02/16 12:25:21;;;;;;;25.67;16.33;;;11.00;99.90;;;;;;5132760;27;20792;-70
2023/02/16 12:28:04;;;;;;;24.40;15.77;;;11.00;99.90;;;;;;5132208;27;20936;-70
2023/02/16 12:30:47;;;;;;;26.07;16.50;;;11.00;99.90;;;;;;5132910;27;20401;-70
2023/02/16 12:33:36;;;;;;;23.03;13.40;;;11.00;99.90;;;;;;5132390;28;20420;-70
2023/02/16 12:36:52;;;;;;;26.67;17.17;;;11.00;99.90;;;;;;5132504;28;20394;-70
2023/02/16 12:39:42;;;;;;;24.87;16.00;;;11.00;99.90;;;;;;5049236;28;20448;-70
2023/02/16 12:42:28;;;;;;;21.70;16.33;;;11.00;99.90;;;;;;5049007;28;20428;-70
2023/02/16 12:44:59;;;;;;;20.97;14.90;;;11.00;99.90;;;;;;5113127;27;20402;-70
2023/02/16 12:47:36;;;;;;;23.50;16.97;;;11.00;99.90;;;;;;5125068;27;20420;-70
2023/02/16 12:50:06;;;;;;;25.97;16.40;;;10.90;99.90;;;;;;5116041;28;20775;-70
2023/02/16 12:52:58;;;;;;;22.50;15.03;;;10.90;99.90;;;;;;5115843;28;20498;-70
2023/02/16 12:55:31;;;;;;;25.87;15.87;;;11.00;99.90;;;;;;5115855;28;20788;-70
2023/02/16 12:58:22;;;;;;;26.57;16.50;;;11.20;99.90;;;;;;5115366;28;20429;-70
2023/02/16 13:00:54;;;;;;;25.00;15.00;;;11.30;99.90;;;;;;5115693;28;20898;-71
2023/02/16 13:03:47;;;;;;;24.60;16.27;;;11.40;99.90;;;;;;5115706;28;20400;-70
2023/02/16 13:06:17;;;;;;;20.97;14.80;;;11.60;99.90;;;;;;5115296;28;20476;-70
2023/02/16 13:09:07;;;;;;;19.63;15.63;;;11.90;99.90;;;;;;5115196;28;20899;-71
2023/02/16 13:12:17;;;;;;;25.93;16.87;;;12.00;99.90;;;;;;5115451;28;20397;-70
2023/02/16 13:14:47;;;;;;;21.07;15.20;;;12.30;99.90;;;;;;5145778;27;20451;-70
2023/02/16 13:17:20;;;;;;;29.90;16.70;;;12.50;99.90;;;;;;5130142;27;20413;-70
2023/02/16 13:19:46;;;;;;;20.20;15.77;;;12.60;99.90;;;;;;5134928;27;20438;-70
2023/02/16 13:23:10;;;;;;;23.43;15.47;;;12.70;99.90;;;;;;5135830;27;20425;-70
2023/02/16 13:25:56;;;;;;;23.43;15.27;;;12.80;99.90;;;;;;5052148;28;20405;-70
2023/02/16 13:28:50;;;;;;;22.93;15.40;;;13.10;99.90;;;;;;5051758;28;20468;-72
2023/02/16 13:31:52;;;;;;;18.93;14.53;;;13.20;99.90;;;;;;5114074;27;20498;-71
2023/02/16 13:34:23;;;;;;;29.90;15.87;;;13.40;99.90;;;;;;5135478;27;20533;-71
2023/02/16 13:37:00;;;;;;;22.00;15.47;;;13.40;99.90;;;;;;5135371;27;20535;-70
2023/02/16 13:39:51;;;;;;;18.67;15.37;;;13.60;99.90;;;;;;5135436;27;20973;-70